createdAt,value
2023-01-21T00:00:09.840Z,99111.56
2023-01-21T00:03:19.965Z,99105.63
2023-01-21T00:06:30.018Z,99111.44
2023-01-21T00:09:39.987Z,99119.38
2023-01-21T00:12:52.685Z,99122.06
2023-01-21T00:16:03.038Z,99120.63
2023-01-21T00:19:15.298Z,99124.78
2023-01-21T00:22:25.406Z,99128.94
2023-01-21T00:25:35.486Z,99134.56
2023-01-21T00:28:47.435Z,99137.44
2023-01-21T00:31:57.606Z,99138.34
2023-01-21T00:35:08.648Z,99146.66
2023-01-21T00:38:18.819Z,99149.72
2023-01-21T00:41:29.086Z,99155.50
2023-01-21T00:44:40.750Z,99157.13
2023-01-21T00:47:50.951Z,99160.56
2023-01-21T00:51:01.491Z,99162.19
2023-01-21T00:54:11.697Z,99170.84
2023-01-21T00:57:21.956Z,99179.66
2023-01-21T01:00:33.688Z,99186.72
2023-01-21T04:05:21.180Z,99458.97
2023-01-21T04:08:31.324Z,99456.38
2023-01-21T04:11:41.492Z,99461.34
2023-01-21T04:14:51.719Z,99462.50
2023-01-21T04:18:01.909Z,99465.59
2023-01-21T04:21:13.403Z,99465.06
2023-01-21T04:24:24.591Z,99464.44
2023-01-21T04:27:34.710Z,99467.88
2023-01-21T04:30:44.933Z,99473.50
2023-01-21T04:33:55.009Z,99469.59
2023-01-21T04:37:14.164Z,99478.03
2023-01-21T04:40:25.458Z,99483.75
2023-01-21T04:43:35.642Z,99485.53
2023-01-21T04:46:45.941Z,99487.38
2023-01-21T04:49:56.175Z,99496.69
2023-01-21T04:53:07.636Z,99498.88
2023-01-21T04:56:17.725Z,99503.53
2023-01-21T04:59:30.716Z,99506.50
2023-01-21T05:02:40.866Z,99502.38
2023-01-21T05:05:50.985Z,99512.38
2023-01-21T05:09:02.399Z,99518.69
2023-01-21T05:12:12.666Z,99516.31
2023-01-21T05:15:22.829Z,99522.56
2023-01-21T05:18:33.087Z,99531.69
2023-01-21T05:21:43.359Z,99534.00
2023-01-21T05:24:54.844Z,99544.34
2023-01-21T05:28:05.065Z,99552.13
2023-01-21T05:31:15.212Z,99562.09
2023-01-21T05:34:25.358Z,99561.28
2023-01-21T05:37:35.577Z,99576.63
2023-01-21T05:40:47.103Z,99575.50
2023-01-21T05:43:57.456Z,99583.69
2023-01-21T05:47:07.667Z,99587.41
2023-01-21T05:50:18.121Z,99591.75
2023-01-21T05:53:28.682Z,99592.63
2023-01-21T05:56:39.984Z,99589.72
2023-01-21T05:59:50.138Z,99597.19
2023-01-21T07:47:26.242Z,99718.31
2023-01-21T07:50:37.783Z,99717.47
2023-01-21T07:53:48.358Z,99716.34
2023-01-21T07:56:58.585Z,99730.41
2023-01-21T08:00:09.776Z,99730.03
2023-01-21T08:03:25.214Z,99730.16
2023-01-21T08:06:37.780Z,99729.75
2023-01-21T08:09:48.339Z,99728.13
2023-01-21T08:12:58.504Z,99724.34
2023-01-21T08:16:11.597Z,99736.38
2023-01-21T08:19:22.981Z,99744.91
2023-01-21T08:22:33.217Z,99742.31
2023-01-21T08:25:43.323Z,99752.88
2023-01-21T08:28:54.788Z,99756.84
2023-01-21T08:32:04.976Z,99755.22
2023-01-21T08:35:16.729Z,99758.75
2023-01-21T08:38:27.271Z,99761.84
2023-01-21T08:41:37.360Z,99765.38
2023-01-21T08:44:50.979Z,99767.06
2023-01-21T08:48:03.982Z,99773.56
2023-01-21T08:51:15.411Z,99776.50
2023-01-21T08:54:25.646Z,99771.88
2023-01-21T08:57:35.679Z,99781.19
2023-01-21T09:00:45.899Z,99772.09
2023-01-21T09:03:56.994Z,99777.91
2023-01-21T09:07:08.633Z,99774.97
2023-01-21T09:10:39.322Z,99778.56
2023-01-21T09:13:49.776Z,99774.34
2023-01-21T09:17:00.104Z,99776.19
2023-01-21T09:20:11.716Z,99780.50
2023-01-21T09:23:26.149Z,99772.47
2023-01-21T09:26:36.380Z,99769.00
2023-01-21T09:29:46.928Z,99769.13
2023-01-21T09:32:58.321Z,99775.22
2023-01-21T09:36:12.223Z,99785.38
2023-01-21T09:39:23.659Z,99794.78
2023-01-21T09:42:34.887Z,99791.34
2023-01-21T09:45:46.503Z,99789.59
2023-01-21T09:48:57.210Z,99792.13
2023-01-21T09:52:17.784Z,99801.16
2023-01-21T10:02:50.031Z,99814.06
2023-01-21T10:06:15.097Z,99818.53
2023-01-21T10:09:42.516Z,99820.16
2023-01-21T10:13:06.773Z,99809.72
2023-01-21T10:16:27.369Z,99814.56
2023-01-21T10:19:45.257Z,99815.97
2023-01-21T10:23:00.737Z,99808.78
2023-01-21T10:26:14.744Z,99816.00
2023-01-21T10:29:27.006Z,99812.88
2023-01-21T10:32:40.356Z,99818.09
2023-01-21T10:36:13.752Z,99805.38
2023-01-21T10:39:36.267Z,99806.38
2023-01-21T10:42:58.116Z,99806.44
2023-01-21T10:46:18.441Z,99806.81
2023-01-21T10:49:45.000Z,99797.50
2023-01-21T10:53:03.152Z,99806.00
2023-01-21T10:56:22.978Z,99801.13
2023-01-21T10:59:35.113Z,99800.50
2023-01-21T11:02:50.501Z,99807.50
2023-01-21T11:06:02.707Z,99799.19
2023-01-21T11:09:15.877Z,99793.97
2023-01-21T11:12:28.164Z,99798.66
2023-01-21T11:15:41.039Z,99799.81
2023-01-21T11:18:51.487Z,99790.09
2023-01-21T11:22:04.993Z,99795.16
2023-01-21T11:25:29.374Z,99793.28
2023-01-21T11:28:39.537Z,99787.59
2023-01-21T11:31:52.143Z,99784.03
2023-01-21T11:35:06.033Z,99786.03
2023-01-21T11:38:24.650Z,99784.66
2023-01-21T11:41:36.980Z,99793.78
2023-01-21T11:44:54.166Z,99792.88
2023-01-21T11:48:20.908Z,99790.34
2023-01-21T11:51:31.609Z,99784.84
2023-01-21T11:54:42.745Z,99791.28
2023-01-21T11:57:57.162Z,99791.63
2023-01-21T12:01:12.858Z,99784.75
2023-01-21T12:04:23.679Z,99798.47
2023-01-21T12:07:38.864Z,99800.41
2023-01-21T12:10:49.100Z,99801.00
2023-01-21T12:14:12.162Z,99795.25
2023-01-21T12:17:39.866Z,99803.06
2023-01-21T12:20:58.498Z,99799.88
2023-01-21T12:24:20.389Z,99800.72
2023-01-21T12:27:36.590Z,99795.69
2023-01-21T12:30:57.372Z,99795.69
2023-01-21T12:34:13.935Z,99803.06
2023-01-21T12:37:28.213Z,99808.78
2023-01-21T12:40:46.732Z,99799.41
2023-01-21T12:44:02.447Z,99791.66
2023-01-21T12:47:26.468Z,99787.75
2023-01-21T12:50:39.597Z,99781.88
2023-01-21T12:53:56.228Z,99790.81
2023-01-21T12:57:15.060Z,99798.03
2023-01-21T13:00:26.779Z,99794.59
2023-01-21T13:03:49.249Z,99798.59
2023-01-21T13:07:07.103Z,99802.13
2023-01-21T13:10:24.149Z,99807.25
2023-01-21T13:13:38.682Z,99805.50
2023-01-21T13:16:55.583Z,99800.06
2023-01-21T13:20:16.529Z,99802.78
2023-01-21T13:23:34.588Z,99806.78
2023-01-21T13:26:51.430Z,99808.22
2023-01-21T13:30:10.881Z,99814.59
2023-01-21T13:33:34.470Z,99818.19
2023-01-21T13:37:02.281Z,99818.69
2023-01-21T13:40:27.231Z,99828.44
2023-01-21T13:43:54.710Z,99820.13
2023-01-21T13:47:11.700Z,99823.75
2023-01-21T13:50:32.249Z,99831.16
2023-01-21T13:54:00.545Z,99822.75
2023-01-21T13:57:26.456Z,99834.66
2023-01-21T14:00:42.034Z,99832.22
2023-01-21T14:04:02.814Z,99835.06
2023-01-21T14:07:18.794Z,99843.75
2023-01-21T14:10:35.351Z,99842.78
2023-01-21T14:14:14.051Z,99843.00
2023-01-21T14:17:45.664Z,99832.22
2023-01-21T14:21:15.447Z,99837.56
2023-01-21T14:24:38.585Z,99839.66
2023-01-21T14:28:03.626Z,99845.09
2023-01-21T14:31:17.826Z,99837.03
2023-01-21T14:34:34.401Z,99845.75
2023-01-21T14:37:47.919Z,99847.78
2023-01-21T14:41:07.221Z,99843.81
2023-01-21T14:44:37.679Z,99843.38
2023-01-21T14:47:50.649Z,99836.81
2023-01-21T14:51:13.193Z,99836.97
2023-01-21T14:54:26.627Z,99837.72
2023-01-21T14:57:39.797Z,99838.31
2023-01-21T15:00:52.478Z,99838.69
2023-01-21T15:04:07.419Z,99840.53
2023-01-21T15:07:21.802Z,99845.06
2023-01-21T15:10:35.151Z,99833.13
2023-01-21T15:13:45.357Z,99824.72
2023-01-21T15:16:57.061Z,99824.72
2023-01-21T15:20:39.404Z,99833.72
2023-01-21T15:23:51.354Z,99833.34
2023-01-21T15:27:15.857Z,99827.31
2023-01-21T15:30:29.540Z,99837.72
2023-01-21T15:33:48.130Z,99844.53
2023-01-21T15:36:58.950Z,99849.50
2023-01-21T15:40:18.626Z,99851.63
2023-01-21T15:43:36.665Z,99854.16
2023-01-21T15:46:58.752Z,99852.56
2023-01-21T15:50:21.987Z,99858.41
2023-01-21T15:53:52.292Z,99852.75
2023-01-21T15:57:19.040Z,99862.75
2023-01-21T16:00:35.261Z,99870.03
2023-01-21T16:03:56.610Z,99858.00
2023-01-21T16:07:25.037Z,99864.78
2023-01-21T16:10:42.267Z,99872.38
2023-01-21T16:14:04.453Z,99875.28
2023-01-21T16:17:21.308Z,99883.44
2023-01-21T16:20:32.659Z,99878.41
2023-01-21T16:23:44.762Z,99883.06
2023-01-21T16:26:55.517Z,99878.63
2023-01-21T16:30:08.274Z,99879.41
2023-01-21T16:33:18.566Z,99879.34
2023-01-21T16:36:29.231Z,99879.00
2023-01-21T16:39:41.272Z,99878.41
2023-01-21T16:43:07.395Z,99880.13
2023-01-21T16:46:22.871Z,99883.56
2023-01-21T16:49:35.074Z,99884.47
2023-01-21T16:52:46.166Z,99885.28
2023-01-21T16:55:59.335Z,99890.34
2023-01-21T16:59:19.959Z,99895.41
2023-01-21T17:02:32.468Z,99897.63
2023-01-21T17:05:42.982Z,99895.50
2023-01-21T17:08:56.553Z,99890.34
2023-01-21T17:12:10.996Z,99890.91
2023-01-21T17:15:30.098Z,99894.56
2023-01-21T17:18:44.034Z,99884.97
2023-01-21T17:21:57.462Z,99884.47
2023-01-21T17:25:20.562Z,99893.16
2023-01-21T17:28:41.010Z,99881.84
2023-01-21T17:31:57.402Z,99883.34
2023-01-21T17:35:13.909Z,99874.97
2023-01-21T17:38:30.448Z,99882.22
2023-01-21T17:41:43.392Z,99891.13
2023-01-21T17:44:58.162Z,99898.59
2023-01-21T17:48:18.013Z,99897.91
2023-01-21T17:51:30.649Z,99903.66
2023-01-21T17:54:40.892Z,99893.56
2023-01-21T17:57:51.892Z,99895.41
2023-01-21T18:01:05.096Z,99896.28
2023-01-21T18:04:17.221Z,99890.06
2023-01-21T18:07:29.918Z,99896.81
2023-01-21T18:10:40.526Z,99882.72
2023-01-21T18:13:54.297Z,99893.94
2023-01-21T18:17:12.420Z,99901.09
2023-01-21T18:20:24.757Z,99899.56
2023-01-21T18:23:35.089Z,99908.41
2023-01-21T18:26:45.604Z,99916.59
2023-01-21T18:29:59.304Z,99900.50
2023-01-21T18:33:13.081Z,99899.97
2023-01-21T18:36:25.557Z,99907.44
2023-01-21T18:39:35.811Z,99900.16
2023-01-21T18:42:46.938Z,99913.66
2023-01-21T18:45:57.038Z,99905.97
2023-01-21T18:49:15.792Z,99904.16
2023-01-21T18:52:28.656Z,99902.38
2023-01-21T18:55:38.768Z,99914.34
2023-01-21T18:58:49.133Z,99917.81
2023-01-21T19:01:59.274Z,99918.03
2023-01-21T19:05:11.202Z,99910.75
2023-01-21T19:08:27.681Z,99916.69
2023-01-21T19:11:37.747Z,99911.19
2023-01-21T19:14:48.799Z,99905.69
2023-01-21T19:17:59.176Z,99911.19
2023-01-21T19:21:12.612Z,99909.28
2023-01-21T19:24:22.764Z,99907.53
2023-01-21T19:27:36.225Z,99910.75
2023-01-21T19:30:49.369Z,99905.69
2023-01-21T19:33:59.582Z,99906.69
2023-01-21T19:37:14.680Z,99909.47
2023-01-21T19:40:30.998Z,99906.28
2023-01-21T19:43:42.092Z,99902.63
2023-01-21T19:46:52.514Z,99909.06
2023-01-21T19:50:04.104Z,99906.91
2023-01-21T19:53:17.239Z,99909.59
2023-01-21T19:56:27.600Z,99908.78
2023-01-21T19:59:39.591Z,99911.56
2023-01-21T20:02:50.387Z,99909.69
2023-01-21T20:06:03.179Z,99916.06
2023-01-21T20:09:17.829Z,99918.59
2023-01-21T20:12:28.124Z,99916.91
2023-01-21T20:15:39.822Z,99920.53
2023-01-21T20:18:50.518Z,99917.31
2023-01-21T20:22:02.701Z,99916.63
2023-01-21T20:25:17.671Z,99912.00
2023-01-21T20:28:34.951Z,99918.25
2023-01-21T20:31:45.553Z,99917.19
2023-01-21T20:34:55.867Z,99903.03
2023-01-21T20:38:12.969Z,99898.91
2023-01-21T20:41:24.293Z,99898.72
2023-01-21T20:44:34.443Z,99899.53
2023-01-21T20:47:49.986Z,99897.84
2023-01-21T20:51:00.642Z,99892.41
2023-01-21T20:54:10.845Z,99892.09
2023-01-21T20:57:22.086Z,99885.50
2023-01-21T21:00:35.755Z,99891.81
2023-01-21T21:03:46.157Z,99888.59
2023-01-21T21:06:56.147Z,99887.50
2023-01-21T21:10:07.101Z,99886.50
2023-01-21T21:13:18.900Z,99881.94
2023-01-21T21:16:32.079Z,99877.91
2023-01-21T21:19:42.305Z,99871.84
2023-01-21T21:22:52.469Z,99875.00
2023-01-21T21:26:02.444Z,99877.47
2023-01-21T21:29:14.674Z,99873.53
2023-01-21T21:32:24.689Z,99868.25
2023-01-21T21:35:36.369Z,99864.84
2023-01-21T21:38:47.644Z,99869.34
2023-01-21T21:42:08.594Z,99863.09
2023-01-21T21:45:20.048Z,99853.91
2023-01-21T21:48:39.396Z,99860.53
2023-01-21T21:51:49.399Z,99853.78
2023-01-21T21:54:59.389Z,99855.19
2023-01-21T21:58:09.549Z,99847.97
2023-01-21T22:01:23.992Z,99840.19
2023-01-21T22:04:34.361Z,99838.47
2023-01-21T22:07:44.583Z,99835.66
2023-01-21T22:10:59.086Z,99834.56
2023-01-21T22:14:09.164Z,99829.56
2023-01-21T22:17:20.386Z,99840.19
2023-01-21T22:20:30.485Z,99838.38
2023-01-21T22:23:40.505Z,99832.59
2023-01-21T22:26:50.489Z,99824.63
2023-01-21T22:30:01.581Z,99823.06
2023-01-21T22:33:14.161Z,99828.09
2023-01-21T22:36:25.798Z,99826.38
2023-01-21T22:39:35.805Z,99817.91
2023-01-21T22:42:45.849Z,99815.88
2023-01-21T22:45:57.442Z,99815.09
2023-01-21T22:49:08.885Z,99813.56
2023-01-21T22:52:18.827Z,99814.25
2023-01-21T22:55:28.783Z,99813.13
2023-01-21T22:58:39.220Z,99805.56
2023-01-21T23:01:51.401Z,99808.09
2023-01-21T23:05:02.932Z,99803.44
2023-01-21T23:08:12.997Z,99798.56
2023-01-21T23:11:23.018Z,99798.50
2023-01-21T23:14:33.104Z,99792.72
2023-01-21T23:17:43.199Z,99798.47
2023-01-21T23:20:54.606Z,99793.19
2023-01-21T23:24:05.108Z,99793.47
2023-01-21T23:27:15.027Z,99797.06
